createdAt,value
2022-11-10T00:00:10.000Z,61.78
2022-11-10T00:01:09.523Z,61.78
2022-11-10T00:01:41.312Z,61.94
2022-11-10T00:02:13.153Z,61.80
2022-11-10T00:02:45.467Z,61.66
2022-11-10T00:03:17.444Z,61.50
2022-11-10T00:03:49.895Z,61.42
2022-11-10T00:04:21.680Z,61.44
2022-11-10T00:04:53.535Z,61.48
2022-11-10T00:05:25.327Z,61.53
2022-11-10T00:05:57.177Z,61.60
2022-11-10T00:06:29.003Z,61.61
2022-11-10T00:07:00.962Z,61.67
2022-11-10T00:07:32.826Z,61.83
2022-11-10T00:08:06.762Z,61.99
2022-11-10T00:08:38.735Z,62.14
2022-11-10T00:09:10.519Z,62.36
2022-11-10T00:09:42.605Z,62.54
2022-11-10T00:10:15.149Z,62.66
2022-11-10T00:11:00.785Z,62.74
2022-11-10T00:11:32.928Z,62.84
2022-11-10T00:12:05.193Z,62.98
2022-11-10T00:12:37.692Z,62.89
2022-11-10T00:13:09.696Z,62.79
2022-11-10T00:14:00.118Z,62.80
2022-11-10T00:14:50.548Z,62.82
2022-11-10T00:15:41.281Z,63.01
2022-11-10T00:16:31.705Z,63.07
2022-11-10T00:17:06.523Z,63.13
2022-11-10T00:17:38.391Z,63.22
2022-11-10T00:18:10.214Z,63.26
2022-11-10T00:18:42.051Z,63.34
2022-11-10T00:19:13.984Z,63.34
2022-11-10T00:19:46.195Z,63.07
2022-11-10T00:20:18.172Z,62.77
2022-11-10T00:20:49.973Z,62.56
2022-11-10T00:21:21.947Z,62.30
2022-11-10T00:21:54.072Z,62.12
2022-11-10T00:22:26.319Z,61.94
2022-11-10T00:22:58.161Z,61.79
2022-11-10T00:23:30.023Z,61.72
2022-11-10T00:24:03.354Z,61.65
2022-11-10T00:24:35.198Z,61.64
2022-11-10T00:25:07.836Z,61.62
2022-11-10T00:25:39.814Z,61.51
2022-11-10T00:26:18.668Z,61.41
2022-11-10T00:26:50.846Z,61.41
2022-11-10T00:27:22.825Z,61.54
2022-11-10T00:27:54.736Z,61.66
2022-11-10T00:28:30.296Z,61.87
2022-11-10T00:29:02.160Z,62.03
2022-11-10T00:29:34.385Z,62.13
2022-11-10T00:30:06.750Z,62.20
2022-11-10T00:30:38.601Z,62.26
2022-11-10T00:31:11.728Z,62.37
2022-11-10T00:31:43.580Z,62.38
2022-11-10T00:32:15.523Z,62.50
2022-11-10T00:32:48.112Z,62.64
2022-11-10T00:33:20.231Z,62.84
2022-11-10T00:33:52.238Z,63.06
2022-11-10T00:34:24.715Z,63.31
2022-11-10T00:34:56.475Z,63.59
2022-11-10T00:35:28.260Z,63.79
2022-11-10T00:36:00.307Z,64.04
2022-11-10T00:36:34.242Z,64.22
2022-11-10T00:37:06.234Z,64.30
2022-11-10T00:37:38.087Z,64.23
2022-11-10T00:38:10.002Z,64.09
2022-11-10T00:38:41.823Z,63.93
2022-11-10T00:39:13.808Z,63.74
2022-11-10T00:39:45.636Z,63.61
2022-11-10T00:40:17.666Z,63.57
2022-11-10T00:40:49.403Z,63.50
2022-11-10T00:41:21.555Z,63.51
2022-11-10T00:41:53.513Z,63.56
2022-11-10T00:42:25.429Z,63.58
2022-11-10T00:42:57.382Z,63.51
2022-11-10T00:43:30.141Z,63.18
2022-11-10T00:44:02.420Z,62.93
2022-11-10T00:44:34.446Z,62.62
2022-11-10T00:45:06.833Z,62.29
2022-11-10T00:45:42.199Z,62.13
2022-11-10T00:46:15.022Z,62.11
2022-11-10T00:46:46.917Z,61.99
2022-11-10T00:47:18.784Z,61.86
2022-11-10T00:47:50.557Z,61.73
2022-11-10T00:48:22.580Z,61.67
2022-11-10T00:48:54.380Z,61.67
2022-11-10T00:49:26.926Z,61.83
2022-11-10T00:49:58.797Z,61.99
2022-11-10T00:50:30.726Z,62.21
2022-11-10T00:51:03.909Z,62.36
2022-11-10T00:51:36.092Z,62.52
2022-11-10T00:52:08.012Z,62.76
2022-11-10T00:52:39.891Z,62.84
2022-11-10T00:53:11.771Z,62.84
2022-11-10T00:53:43.734Z,62.78
2022-11-10T00:54:15.670Z,62.62
2022-11-10T00:54:47.394Z,62.52
2022-11-10T00:55:19.225Z,62.31
2022-11-10T00:55:51.250Z,62.17
2022-11-10T00:56:24.133Z,61.85
2022-11-10T00:56:56.018Z,61.54
2022-11-10T00:57:27.742Z,61.18
2022-11-10T00:57:59.607Z,61.04
2022-11-10T00:58:31.449Z,60.71
2022-11-10T00:59:03.245Z,60.46
2022-11-10T00:59:35.050Z,60.24
2022-11-10T01:00:08.222Z,60.07
2022-11-10T01:00:40.529Z,59.89
2022-11-10T01:01:13.107Z,59.70
2022-11-10T01:01:44.908Z,59.53
2022-11-10T01:02:16.837Z,59.37
2022-11-10T01:02:48.693Z,59.25
2022-11-10T01:03:21.728Z,59.37
2022-11-10T01:03:54.077Z,59.61
2022-11-10T01:04:25.996Z,60.13
2022-11-10T01:04:57.961Z,60.76
2022-11-10T01:05:30.433Z,61.40
2022-11-10T01:06:11.309Z,61.95
2022-11-10T01:06:43.092Z,61.60
2022-11-10T01:07:15.041Z,62.03
2022-11-10T01:07:47.000Z,63.78
2022-11-10T01:08:18.885Z,64.51
2022-11-10T01:08:50.737Z,64.86
2022-11-10T01:09:22.641Z,64.87
2022-11-10T01:09:54.525Z,64.63
2022-11-10T01:10:26.897Z,64.28
2022-11-10T01:11:09.825Z,63.79
2022-11-10T01:11:41.695Z,63.48
2022-11-10T01:12:14.116Z,62.65
2022-11-10T01:12:45.920Z,62.16
2022-11-10T01:13:17.669Z,61.75
2022-11-10T01:13:51.665Z,61.48
2022-11-10T01:14:23.529Z,61.36
2022-11-10T01:14:56.423Z,61.13
2022-11-10T01:15:29.681Z,61.00
2022-11-10T01:16:13.359Z,60.94
2022-11-10T01:16:45.140Z,61.04
2022-11-10T01:17:16.906Z,60.97
2022-11-10T01:17:48.998Z,60.92
2022-11-10T01:18:20.749Z,60.89
2022-11-10T01:18:58.263Z,60.77
2022-11-10T01:19:30.056Z,60.69
2022-11-10T01:20:01.902Z,60.78
2022-11-10T01:20:34.682Z,60.93
2022-11-10T01:21:08.332Z,60.96
2022-11-10T01:21:40.016Z,60.86
2022-11-10T01:22:11.828Z,60.71
2022-11-10T01:22:43.815Z,60.47
2022-11-10T01:23:15.754Z,60.27
2022-11-10T01:23:48.282Z,60.14
2022-11-10T01:24:21.404Z,59.89
2022-11-10T01:24:53.417Z,59.78
2022-11-10T01:25:25.273Z,59.69
2022-11-10T01:26:01.885Z,59.59
2022-11-10T01:26:33.658Z,59.68
2022-11-10T01:27:06.400Z,59.60
2022-11-10T01:27:38.261Z,59.49
2022-11-10T01:28:10.139Z,59.44
2022-11-10T01:28:42.109Z,59.46
2022-11-10T01:29:14.357Z,59.30
2022-11-10T01:29:46.403Z,59.40
2022-11-10T01:30:19.168Z,59.76
2022-11-10T01:31:01.659Z,60.20
2022-11-10T01:31:33.464Z,60.55
2022-11-10T01:32:05.185Z,61.42
2022-11-10T01:32:36.979Z,62.13
2022-11-10T01:33:08.874Z,62.79
2022-11-10T01:33:41.150Z,63.48
2022-11-10T01:34:13.001Z,63.91
2022-11-10T01:34:45.185Z,63.99
2022-11-10T01:35:17.085Z,63.74
2022-11-10T01:35:48.946Z,63.44
2022-11-10T01:36:20.890Z,63.19
2022-11-10T01:36:52.691Z,62.96
2022-11-10T01:37:24.661Z,62.71
2022-11-10T01:37:57.030Z,62.39
2022-11-10T01:38:31.202Z,62.17
2022-11-10T01:39:03.143Z,61.96
2022-11-10T01:39:35.077Z,61.72
2022-11-10T01:40:07.919Z,61.44
2022-11-10T01:40:39.916Z,61.22
2022-11-10T01:41:13.645Z,60.99
2022-11-10T01:41:45.527Z,60.90
2022-11-10T01:42:24.645Z,60.96
2022-11-10T01:42:58.073Z,61.02
2022-11-10T01:43:30.621Z,61.06
2022-11-10T01:44:13.920Z,61.23
2022-11-10T01:45:37.626Z,61.53
2022-11-10T01:46:11.872Z,62.20
2022-11-10T01:46:44.148Z,60.58
2022-11-10T01:47:16.044Z,60.09
2022-11-10T01:47:49.962Z,59.71
2022-11-10T01:48:36.124Z,59.39
2022-11-10T01:49:09.160Z,58.92
2022-11-10T01:49:40.902Z,58.90
2022-11-10T01:50:12.672Z,59.21
2022-11-10T01:50:46.211Z,59.64
2022-11-10T01:51:24.900Z,60.15
2022-11-10T01:52:01.503Z,60.75
2022-11-10T01:52:33.471Z,61.56
2022-11-10T01:53:10.322Z,62.36
2022-11-10T01:53:46.254Z,62.92
2022-11-10T01:54:30.345Z,63.73
2022-11-10T01:55:02.275Z,64.18
2022-11-10T01:55:35.274Z,64.15
2022-11-10T01:56:09.632Z,63.76
2022-11-10T01:56:52.595Z,63.34
2022-11-10T01:57:24.753Z,62.92
2022-11-10T01:57:56.673Z,62.50
2022-11-10T01:58:33.681Z,62.31
2022-11-10T01:59:13.274Z,61.97
2022-11-10T01:59:48.293Z,61.91
2022-11-10T02:00:20.428Z,60.98
2022-11-10T02:00:53.068Z,60.40
2022-11-10T02:01:25.454Z,60.02
2022-11-10T02:02:06.333Z,59.65
2022-11-10T02:02:42.524Z,59.99
2022-11-10T02:03:40.350Z,59.62
2022-11-10T02:04:16.102Z,59.02
2022-11-10T02:04:50.900Z,59.56
2022-11-10T02:05:23.794Z,60.11
2022-11-10T02:05:56.093Z,60.74
2022-11-10T02:06:32.865Z,61.44
2022-11-10T02:07:06.213Z,61.97
2022-11-10T02:07:38.858Z,62.68
2022-11-10T02:08:14.889Z,63.46
2022-11-10T02:08:47.357Z,63.95
2022-11-10T02:09:19.587Z,63.90
2022-11-10T02:09:53.227Z,63.45
2022-11-10T02:10:25.249Z,62.82
2022-11-10T02:10:57.006Z,61.89
2022-11-10T02:11:30.251Z,60.99
2022-11-10T02:12:02.235Z,60.32
2022-11-10T02:12:37.316Z,59.64
2022-11-10T02:13:11.683Z,59.02
2022-11-10T02:13:43.620Z,58.26
2022-11-10T02:14:16.156Z,58.10
2022-11-10T02:14:47.997Z,58.38
2022-11-10T02:15:19.794Z,58.90
2022-11-10T02:15:52.807Z,59.40
2022-11-10T02:16:25.106Z,59.89
2022-11-10T02:16:57.157Z,60.58
2022-11-10T02:17:29.308Z,61.26
2022-11-10T02:18:01.038Z,61.92
2022-11-10T02:18:32.745Z,62.66
2022-11-10T02:19:22.224Z,63.37
2022-11-10T02:19:58.834Z,64.11
2022-11-10T02:20:30.844Z,64.08
2022-11-10T02:21:09.033Z,63.65
2022-11-10T02:21:40.947Z,63.27
2022-11-10T02:22:12.833Z,62.99
2022-11-10T02:22:44.872Z,62.73
2022-11-10T02:23:33.610Z,62.57
2022-11-10T02:24:05.406Z,62.35
2022-11-10T02:24:37.203Z,62.15
2022-11-10T02:25:09.483Z,62.09
2022-11-10T02:25:41.530Z,62.10
2022-11-10T02:26:15.711Z,62.16
2022-11-10T02:26:54.056Z,62.17
2022-11-10T02:27:25.934Z,62.42
2022-11-10T02:27:57.796Z,62.33
2022-11-10T02:28:33.998Z,62.10
2022-11-10T02:29:06.218Z,61.84
2022-11-10T02:29:38.138Z,61.28
2022-11-10T02:30:10.798Z,60.86
2022-11-10T02:30:42.556Z,60.44
2022-11-10T02:31:14.385Z,60.03
2022-11-10T02:31:46.227Z,59.73
2022-11-10T02:32:18.432Z,59.48
2022-11-10T02:32:50.167Z,59.29
2022-11-10T02:33:22.180Z,59.02
2022-11-10T02:33:54.241Z,59.05
2022-11-10T02:34:26.523Z,59.34
2022-11-10T02:34:58.334Z,59.78
2022-11-10T02:35:30.203Z,60.32
2022-11-10T02:36:02.361Z,60.90
2022-11-10T02:36:34.483Z,61.59
2022-11-10T02:37:06.236Z,62.37
2022-11-10T02:37:38.062Z,62.99
2022-11-10T02:38:10.235Z,63.63
2022-11-10T02:38:42.155Z,64.04
2022-11-10T02:39:13.904Z,64.23
2022-11-10T02:39:45.753Z,63.96
2022-11-10T02:40:17.601Z,63.55
2022-11-10T02:40:49.657Z,63.17
2022-11-10T02:41:21.584Z,62.73
2022-11-10T02:41:53.475Z,62.41
2022-11-10T02:42:25.264Z,62.10
2022-11-10T02:42:57.119Z,62.01
2022-11-10T02:43:29.312Z,61.97
2022-11-10T02:44:02.992Z,62.04
2022-11-10T02:44:34.840Z,62.04
2022-11-10T02:45:08.300Z,62.00
2022-11-10T02:45:45.932Z,61.98
2022-11-10T02:46:17.821Z,61.97
2022-11-10T02:46:49.569Z,62.09
2022-11-10T02:47:21.447Z,62.12
2022-11-10T02:47:53.118Z,62.11
2022-11-10T02:48:25.077Z,62.03
2022-11-10T02:48:56.943Z,61.97
2022-11-10T02:49:28.854Z,62.01
2022-11-10T02:50:00.522Z,61.82
2022-11-10T02:50:32.183Z,61.58
2022-11-10T02:51:04.033Z,61.29
2022-11-10T02:51:36.424Z,60.96
2022-11-10T02:52:08.280Z,60.63
2022-11-10T02:52:40.269Z,60.40
2022-11-10T02:53:12.067Z,60.18
2022-11-10T02:53:43.950Z,59.87
2022-11-10T02:54:15.668Z,59.60
2022-11-10T02:54:47.325Z,59.39
2022-11-10T02:55:19.059Z,59.24
2022-11-10T02:55:50.811Z,59.15
2022-11-10T02:56:22.585Z,59.33
2022-11-10T02:56:54.303Z,59.77
2022-11-10T02:57:26.057Z,60.25
2022-11-10T02:57:58.338Z,60.76
2022-11-10T02:58:29.991Z,61.35
2022-11-10T02:59:01.715Z,61.99
2022-11-10T02:59:33.570Z,62.65
2022-11-10T03:00:06.989Z,63.34
2022-11-10T03:00:38.824Z,63.90
2022-11-10T03:01:10.867Z,64.11
2022-11-10T03:01:42.605Z,63.95
2022-11-10T03:02:15.003Z,63.53
2022-11-10T03:02:46.758Z,63.11
2022-11-10T03:03:18.746Z,62.73
2022-11-10T03:03:50.706Z,62.39
2022-11-10T03:04:22.471Z,62.14
2022-11-10T03:04:54.246Z,62.04
2022-11-10T03:05:25.955Z,61.92
2022-11-10T03:05:57.667Z,61.76
2022-11-10T03:06:29.560Z,61.63
2022-11-10T03:07:01.569Z,61.45
2022-11-10T03:07:33.349Z,61.21
2022-11-10T03:08:05.267Z,61.05
2022-11-10T03:08:38.451Z,60.98
2022-11-10T03:09:12.076Z,60.88
2022-11-10T03:09:43.868Z,60.80
2022-11-10T03:10:15.829Z,60.67
2022-11-10T03:10:47.727Z,60.58
2022-11-10T03:11:19.620Z,60.43
2022-11-10T03:11:51.454Z,60.27
2022-11-10T03:12:23.286Z,59.99
2022-11-10T03:12:57.129Z,59.81
2022-11-10T03:13:45.244Z,59.66
2022-11-10T03:14:22.363Z,59.64
2022-11-10T03:14:54.164Z,59.32
2022-11-10T03:15:26.991Z,59.20
2022-11-10T03:15:58.814Z,59.31
2022-11-10T03:16:30.699Z,59.73
2022-11-10T03:17:02.577Z,60.26
2022-11-10T03:17:34.314Z,60.89
2022-11-10T03:18:06.205Z,61.60
2022-11-10T03:18:37.994Z,62.35
2022-11-10T03:19:09.771Z,63.05
2022-11-10T03:19:41.485Z,63.74
2022-11-10T03:20:13.906Z,64.30
2022-11-10T03:20:49.419Z,64.69
2022-11-10T03:21:21.176Z,64.59
2022-11-10T03:21:53.118Z,64.22
2022-11-10T03:22:24.953Z,63.74
2022-11-10T03:23:01.373Z,63.47
2022-11-10T03:23:34.200Z,63.37
2022-11-10T03:24:06.145Z,63.31
2022-11-10T03:24:38.143Z,63.52
2022-11-10T03:25:11.018Z,63.60
2022-11-10T03:25:43.047Z,63.81
2022-11-10T03:26:14.981Z,63.55
2022-11-10T03:26:46.832Z,63.64
2022-11-10T03:27:18.684Z,63.53
2022-11-10T03:27:50.561Z,63.50
2022-11-10T03:28:22.485Z,63.53
2022-11-10T03:28:54.378Z,63.49
2022-11-10T03:29:26.423Z,63.32
2022-11-10T03:29:58.218Z,63.22
2022-11-10T03:30:30.064Z,63.10
2022-11-10T03:31:02.038Z,62.98
2022-11-10T03:31:33.894Z,62.85
2022-11-10T03:32:05.565Z,62.63
2022-11-10T03:32:37.461Z,62.35
2022-11-10T03:33:09.530Z,62.25
2022-11-10T03:33:41.378Z,62.02
2022-11-10T03:34:13.271Z,61.95
2022-11-10T03:34:45.142Z,61.87
2022-11-10T03:35:17.116Z,61.96
2022-11-10T03:35:48.786Z,61.98
2022-11-10T03:36:20.715Z,61.85
2022-11-10T03:36:52.662Z,61.73
2022-11-10T03:37:24.564Z,61.65
2022-11-10T03:37:56.471Z,61.42
2022-11-10T03:38:28.248Z,61.32
2022-11-10T03:39:00.276Z,61.24
2022-11-10T03:39:32.061Z,61.23
2022-11-10T03:40:03.963Z,61.21
2022-11-10T03:40:50.746Z,61.25
2022-11-10T03:41:27.771Z,61.30
2022-11-10T03:41:59.532Z,61.58
2022-11-10T03:42:31.277Z,61.77
2022-11-10T03:43:03.093Z,61.99
2022-11-10T03:43:35.049Z,62.26
2022-11-10T03:44:06.997Z,62.42
2022-11-10T03:44:38.676Z,62.64
2022-11-10T03:45:12.307Z,62.74
2022-11-10T03:45:44.295Z,62.86
2022-11-10T03:46:16.941Z,62.79
2022-11-10T03:46:51.586Z,62.53
2022-11-10T03:47:23.760Z,62.26
2022-11-10T03:47:56.102Z,61.95
2022-11-10T03:48:27.836Z,61.81
2022-11-10T03:48:59.606Z,61.68
2022-11-10T03:49:31.381Z,61.44
2022-11-10T03:50:03.455Z,61.23
2022-11-10T03:50:35.296Z,61.05
2022-11-10T03:51:07.053Z,60.91
2022-11-10T03:51:38.925Z,60.83
2022-11-10T03:52:10.777Z,60.69
2022-11-10T03:52:44.474Z,60.53
2022-11-10T03:53:16.235Z,60.55
2022-11-10T03:53:48.297Z,60.56
2022-11-10T03:54:19.982Z,60.60
2022-11-10T03:54:51.725Z,60.53
2022-11-10T03:55:23.525Z,60.49
2022-11-10T03:55:55.357Z,60.43
2022-11-10T03:56:27.427Z,60.37
2022-11-10T03:56:59.128Z,60.28
2022-11-10T03:57:30.970Z,60.24
2022-11-10T03:58:03.936Z,60.24
2022-11-10T03:58:36.391Z,60.25
2022-11-10T03:59:08.332Z,60.16
2022-11-10T03:59:40.127Z,60.15
2022-11-10T04:00:14.293Z,60.13
2022-11-10T04:00:46.290Z,60.18
2022-11-10T04:01:18.370Z,60.18
2022-11-10T04:01:50.389Z,60.23
2022-11-10T04:02:22.218Z,60.34
2022-11-10T04:02:54.042Z,60.29
2022-11-10T04:03:26.124Z,60.19
2022-11-10T04:03:58.107Z,60.17
2022-11-10T04:04:48.287Z,60.23
2022-11-10T04:05:39.064Z,60.34
2022-11-10T04:06:30.384Z,60.39
2022-11-10T04:07:21.004Z,60.28
2022-11-10T04:08:18.725Z,60.22
2022-11-10T04:08:59.498Z,60.40
2022-11-10T04:09:31.177Z,60.70
2022-11-10T04:10:03.799Z,60.82
2022-11-10T04:10:36.174Z,60.85
2022-11-10T04:11:07.888Z,60.91
2022-11-10T04:11:58.213Z,60.99
2022-11-10T04:12:48.532Z,60.91
2022-11-10T04:13:38.707Z,61.17
2022-11-10T04:14:29.884Z,61.44
2022-11-10T04:15:20.209Z,61.62
2022-11-10T04:15:52.307Z,61.84
2022-11-10T04:16:24.357Z,62.05
2022-11-10T04:16:56.817Z,61.99
2022-11-10T04:17:28.538Z,61.96
2022-11-10T04:18:18.733Z,62.00
2022-11-10T04:18:50.455Z,61.90
2022-11-10T04:19:22.893Z,62.24
2022-11-10T04:19:54.665Z,62.25
2022-11-10T04:20:26.426Z,62.05
2022-11-10T04:21:00.309Z,61.93
2022-11-10T04:21:32.034Z,62.03
2022-11-10T04:22:03.967Z,61.84
2022-11-10T04:22:54.475Z,61.60
2022-11-10T04:23:34.476Z,61.79
2022-11-10T04:24:06.829Z,60.78
2022-11-10T04:24:38.658Z,59.62
2022-11-10T04:25:10.582Z,58.78
2022-11-10T04:26:02.457Z,58.02
2022-11-10T04:26:38.194Z,57.64
2022-11-10T04:27:10.044Z,58.08
2022-11-10T04:27:42.397Z,58.59
2022-11-10T04:28:14.166Z,58.91
2022-11-10T04:28:48.950Z,59.37
2022-11-10T04:29:20.763Z,60.07
2022-11-10T04:29:52.489Z,60.76
2022-11-10T04:30:24.268Z,61.10
2022-11-10T04:30:55.982Z,61.61
2022-11-10T04:31:30.217Z,62.24
2022-11-10T04:32:02.251Z,62.87
2022-11-10T04:32:33.976Z,63.45
2022-11-10T04:33:05.828Z,63.56
2022-11-10T04:33:38.265Z,63.07
2022-11-10T04:34:12.552Z,62.54
2022-11-10T04:34:44.378Z,61.81
2022-11-10T04:35:16.327Z,60.93
2022-11-10T04:35:48.195Z,60.64
2022-11-10T04:36:25.967Z,60.19
2022-11-10T04:36:57.857Z,59.80
2022-11-10T04:37:29.582Z,59.30
2022-11-10T04:38:01.306Z,58.81
2022-11-10T04:38:33.564Z,58.65
2022-11-10T04:39:06.869Z,58.78
2022-11-10T04:39:38.654Z,59.07
2022-11-10T04:40:10.894Z,59.53
2022-11-10T04:40:43.046Z,60.03
2022-11-10T04:41:16.009Z,60.64
2022-11-10T04:41:48.324Z,61.24
2022-11-10T04:42:20.124Z,61.67
2022-11-10T04:42:51.811Z,62.29
2022-11-10T04:43:23.973Z,62.91
2022-11-10T04:43:56.794Z,63.63
2022-11-10T04:44:28.606Z,63.83
2022-11-10T04:45:00.332Z,63.52
2022-11-10T04:45:33.387Z,62.83
2022-11-10T04:46:07.363Z,62.04
2022-11-10T04:46:40.414Z,61.19
2022-11-10T04:47:12.308Z,60.12
2022-11-10T04:47:44.052Z,59.10
2022-11-10T04:48:15.903Z,58.25
2022-11-10T04:48:47.949Z,57.69
2022-11-10T04:49:19.639Z,57.56
2022-11-10T04:49:51.392Z,57.85
2022-11-10T04:50:23.134Z,58.15
2022-11-10T04:50:55.916Z,58.73
2022-11-10T04:51:30.589Z,59.22
2022-11-10T04:52:02.546Z,59.70
2022-11-10T04:52:34.473Z,60.25
2022-11-10T04:53:06.236Z,60.83
2022-11-10T04:53:38.079Z,61.40
2022-11-10T04:54:11.178Z,61.98
2022-11-10T04:54:42.858Z,62.40
2022-11-10T04:55:14.766Z,62.98
2022-11-10T04:55:47.143Z,63.58
2022-11-10T04:56:21.503Z,63.76
2022-11-10T04:56:53.365Z,63.39
2022-11-10T04:57:25.155Z,62.57
2022-11-10T04:57:57.025Z,61.75
2022-11-10T04:58:28.830Z,60.98
2022-11-10T04:59:00.674Z,59.99
2022-11-10T04:59:32.380Z,59.08
2022-11-10T05:00:07.005Z,58.16
2022-11-10T05:00:39.525Z,57.44
2022-11-10T05:01:13.151Z,57.26
2022-11-10T05:01:44.975Z,57.37
2022-11-10T05:02:17.113Z,57.98
2022-11-10T05:02:48.913Z,58.74
2022-11-10T05:03:21.122Z,59.46
2022-11-10T05:03:54.204Z,60.26
2022-11-10T05:04:26.111Z,61.25
2022-11-10T05:04:58.028Z,62.23
2022-11-10T05:05:30.084Z,63.07
2022-11-10T05:06:01.847Z,63.94
2022-11-10T05:06:33.752Z,64.29
2022-11-10T05:07:06.027Z,64.21
2022-11-10T05:07:38.316Z,63.72
2022-11-10T05:08:11.589Z,62.94
2022-11-10T05:08:44.679Z,62.08
2022-11-10T05:09:16.549Z,61.26
2022-11-10T05:09:48.355Z,60.26
2022-11-10T05:10:20.294Z,59.49
2022-11-10T05:10:52.120Z,58.86
2022-11-10T05:11:23.997Z,58.27
2022-11-10T05:11:55.907Z,58.00
2022-11-10T05:12:27.958Z,58.17
2022-11-10T05:13:00.069Z,58.63
2022-11-10T05:13:32.500Z,59.24
2022-11-10T05:14:04.430Z,59.93
2022-11-10T05:14:36.399Z,60.66
2022-11-10T05:15:09.125Z,61.40
2022-11-10T05:15:41.900Z,62.21
2022-11-10T05:16:14.402Z,63.00
2022-11-10T05:16:46.290Z,63.74
2022-11-10T05:17:18.476Z,64.08
2022-11-10T05:17:52.368Z,63.85
2022-11-10T05:18:24.852Z,63.17
2022-11-10T05:18:57.759Z,62.37
2022-11-10T05:19:29.585Z,61.46
2022-11-10T05:20:01.469Z,60.41
2022-11-10T05:20:33.427Z,59.77
2022-11-10T05:21:06.228Z,58.98
2022-11-10T05:21:38.301Z,58.05
2022-11-10T05:22:10.306Z,57.66
2022-11-10T05:23:08.960Z,57.71
2022-11-10T05:23:41.598Z,57.88
2022-11-10T05:24:13.330Z,59.15
2022-11-10T05:24:45.034Z,59.91
2022-11-10T05:25:16.990Z,60.65
2022-11-10T05:25:48.830Z,61.37
2022-11-10T05:26:20.909Z,61.91
2022-11-10T05:26:52.677Z,62.50
2022-11-10T05:27:24.394Z,63.22
2022-11-10T05:27:56.305Z,63.98
2022-11-10T05:28:28.198Z,64.21
2022-11-10T05:29:00.017Z,63.86
2022-11-10T05:29:32.003Z,63.25
2022-11-10T05:30:04.197Z,62.63
2022-11-10T05:30:36.340Z,61.75
2022-11-10T05:31:09.129Z,60.73
2022-11-10T05:31:41.173Z,59.83
2022-11-10T05:32:13.114Z,59.02
2022-11-10T05:32:44.996Z,58.22
2022-11-10T05:33:16.959Z,58.02
2022-11-10T05:33:48.941Z,58.18
2022-11-10T05:34:20.854Z,58.65
2022-11-10T05:34:52.860Z,59.19
2022-11-10T05:35:25.052Z,59.69
2022-11-10T05:35:56.949Z,60.32
2022-11-10T05:36:28.772Z,60.89
2022-11-10T05:37:00.697Z,61.53
2022-11-10T05:37:32.548Z,62.17
2022-11-10T05:38:05.009Z,62.82
2022-11-10T05:38:42.966Z,63.59
2022-11-10T05:39:15.375Z,64.07
2022-11-10T05:39:47.203Z,63.69
2022-11-10T05:40:19.115Z,63.07
2022-11-10T05:40:51.143Z,62.26
2022-11-10T05:41:22.980Z,61.49
2022-11-10T05:41:54.922Z,60.64
2022-11-10T05:42:27.029Z,59.76
2022-11-10T05:42:59.152Z,59.12
2022-11-10T05:43:31.042Z,58.52
2022-11-10T05:44:02.960Z,58.26
2022-11-10T05:44:34.760Z,58.37
2022-11-10T05:45:07.202Z,58.71
2022-11-10T05:45:39.047Z,59.22
2022-11-10T05:46:10.997Z,59.73
2022-11-10T05:46:42.878Z,60.35
2022-11-10T05:47:14.764Z,61.08
2022-11-10T05:47:46.963Z,61.83
2022-11-10T05:48:18.823Z,62.52
2022-11-10T05:48:50.635Z,63.20
2022-11-10T05:49:22.928Z,63.89
2022-11-10T05:49:54.875Z,64.15
2022-11-10T05:50:26.881Z,63.94
2022-11-10T05:50:58.883Z,63.42
2022-11-10T05:51:30.805Z,62.70
2022-11-10T05:52:02.792Z,61.73
2022-11-10T05:52:35.781Z,60.97
2022-11-10T05:53:07.633Z,60.32
2022-11-10T05:53:39.342Z,59.83
2022-11-10T05:54:11.268Z,59.32
2022-11-10T05:54:42.991Z,58.80
2022-11-10T05:55:15.590Z,58.57
2022-11-10T05:55:47.447Z,58.64
2022-11-10T05:56:19.599Z,58.98
2022-11-10T05:56:51.424Z,59.56
2022-11-10T05:57:23.451Z,60.21
2022-11-10T05:57:56.785Z,60.99
2022-11-10T05:58:28.948Z,61.76
2022-11-10T05:59:00.934Z,62.44
2022-11-10T05:59:32.733Z,63.13
2022-11-10T06:00:06.116Z,63.93
2022-11-10T06:00:37.965Z,64.25
2022-11-10T06:01:09.778Z,64.09
2022-11-10T06:01:41.637Z,63.51
2022-11-10T06:02:13.607Z,62.95
2022-11-10T06:02:45.467Z,62.28
2022-11-10T06:03:19.457Z,61.53
2022-11-10T06:03:51.628Z,60.89
2022-11-10T06:04:23.671Z,60.21
2022-11-10T06:04:55.474Z,59.48
2022-11-10T06:05:31.353Z,59.04
2022-11-10T06:06:03.907Z,58.43
2022-11-10T06:06:35.668Z,58.22
2022-11-10T06:07:07.830Z,58.33
2022-11-10T06:07:39.837Z,58.67
2022-11-10T06:08:12.111Z,59.20
2022-11-10T06:08:44.029Z,59.73
2022-11-10T06:09:15.871Z,60.35
2022-11-10T06:09:48.098Z,61.05
2022-11-10T06:10:20.018Z,61.71
2022-11-10T06:10:52.141Z,62.52
2022-11-10T06:11:23.950Z,63.16
2022-11-10T06:11:55.812Z,63.79
2022-11-10T06:12:30.637Z,64.01
2022-11-10T06:13:03.282Z,63.90
2022-11-10T06:13:35.236Z,63.25
2022-11-10T06:14:07.073Z,62.51
2022-11-10T06:14:38.862Z,61.89
2022-11-10T06:15:10.960Z,61.25
2022-11-10T06:15:47.550Z,60.63
2022-11-10T06:16:22.000Z,60.27
2022-11-10T06:16:53.786Z,59.53
2022-11-10T06:17:26.863Z,59.00
2022-11-10T06:17:59.240Z,58.60
2022-11-10T06:18:30.933Z,58.45
2022-11-10T06:19:02.669Z,58.63
2022-11-10T06:19:34.854Z,59.16
2022-11-10T06:20:07.461Z,59.82
2022-11-10T06:20:39.294Z,60.44
2022-11-10T06:21:11.089Z,61.16
2022-11-10T06:21:42.775Z,61.83
2022-11-10T06:22:14.762Z,62.53
2022-11-10T06:23:03.811Z,63.26
2022-11-10T06:23:35.755Z,64.22
2022-11-10T06:24:08.084Z,64.06
2022-11-10T06:24:40.024Z,63.76
2022-11-10T06:25:12.306Z,63.01
2022-11-10T06:25:44.144Z,62.44
2022-11-10T06:26:16.553Z,61.83
2022-11-10T06:26:48.404Z,61.24
2022-11-10T06:27:20.163Z,60.56
2022-11-10T06:27:52.054Z,60.01
2022-11-10T06:28:23.918Z,59.52
2022-11-10T06:28:55.755Z,59.02
2022-11-10T06:29:27.646Z,58.54
2022-11-10T06:29:59.555Z,58.47
2022-11-10T06:30:33.626Z,58.68
2022-11-10T06:31:05.549Z,59.18
2022-11-10T06:31:37.351Z,59.81
2022-11-10T06:32:10.639Z,60.54
2022-11-10T06:32:46.112Z,61.19
2022-11-10T06:33:17.970Z,62.03
2022-11-10T06:33:49.839Z,62.73
2022-11-10T06:34:21.809Z,63.50
2022-11-10T06:34:59.261Z,63.91
2022-11-10T06:35:32.432Z,63.91
2022-11-10T06:36:04.421Z,63.19
2022-11-10T06:36:36.143Z,62.56
2022-11-10T06:37:07.869Z,61.90
2022-11-10T06:37:40.057Z,61.32
2022-11-10T06:38:14.946Z,60.75
2022-11-10T06:38:46.813Z,60.33
2022-11-10T06:39:18.769Z,59.64
2022-11-10T06:39:50.613Z,59.09
2022-11-10T06:40:22.490Z,58.62
2022-11-10T06:40:54.274Z,58.37
2022-11-10T06:41:26.107Z,58.60
2022-11-10T06:41:57.971Z,59.00
2022-11-10T06:42:29.844Z,59.52
2022-11-10T06:43:02.479Z,60.19
2022-11-10T06:43:34.214Z,60.88
2022-11-10T06:44:06.270Z,61.70
2022-11-10T06:44:38.069Z,62.44
2022-11-10T06:45:10.134Z,63.24
2022-11-10T06:45:42.027Z,63.89
2022-11-10T06:46:13.798Z,64.11
2022-11-10T06:46:45.506Z,63.93
2022-11-10T06:47:17.684Z,63.39
2022-11-10T06:47:58.069Z,62.85
2022-11-10T06:48:29.928Z,62.33
2022-11-10T06:49:02.548Z,61.44
2022-11-10T06:49:34.432Z,60.79
2022-11-10T06:50:06.655Z,60.29
2022-11-10T06:50:38.470Z,59.84
2022-11-10T06:51:10.207Z,59.46
2022-11-10T06:51:41.943Z,59.11
2022-11-10T06:52:13.740Z,58.73
2022-11-10T06:52:53.543Z,58.60
2022-11-10T06:53:27.121Z,58.73
2022-11-10T06:53:59.148Z,59.39
2022-11-10T06:54:31.022Z,60.09
2022-11-10T06:55:02.978Z,60.74
2022-11-10T06:55:34.926Z,61.46
2022-11-10T06:56:07.261Z,62.14
2022-11-10T06:56:39.080Z,62.82
2022-11-10T06:57:10.998Z,63.54
2022-11-10T06:57:42.797Z,63.97
2022-11-10T06:58:15.937Z,63.80
2022-11-10T06:58:47.698Z,63.41
2022-11-10T06:59:19.517Z,62.75
2022-11-10T06:59:51.502Z,62.16
2022-11-10T07:00:24.482Z,61.51
2022-11-10T07:00:59.890Z,60.90
2022-11-10T07:01:31.780Z,60.41
2022-11-10T07:02:03.941Z,59.80
2022-11-10T07:02:35.666Z,59.35
2022-11-10T07:03:11.732Z,58.93
2022-11-10T07:04:05.163Z,58.51
2022-11-10T07:04:35.275Z,58.30
2022-11-10T07:05:07.688Z,59.08
2022-11-10T07:05:39.743Z,59.55
2022-11-10T07:06:11.379Z,60.17
2022-11-10T07:06:43.268Z,60.88
2022-11-10T07:07:15.113Z,61.56
2022-11-10T07:07:46.959Z,62.21
2022-11-10T07:08:19.697Z,62.94